Terminal Aerodrome Forecast
Issued by NWS

Home | Current Version | Previous Version | Text Only | Print | Product List | Glossary On
Versions: 1 2 3 4 5 6 7 8 9 10 11 12 13 14 15 16 17
964
FTUS43 KTOP 251132
TAFFOE
TAF
KFOE 251132Z 2512/2612 16011KT P6SM SCT050 BKN100
     FM251500 VRB08KT P6SM SHRA VCTS SCT025 BKN050CB
     FM251700 19011KT P6SM SCT030
     FM252300 18010KT P6SM VCTS SCT030CB
     FM260300 17009KT P6SM SCT025 BKN050=

USA.gov is the U.S. government's official web portal to all federal, state and local government web resources and services.